sensor_id;sensor_type;location;lat;lon;timestamp;P1;durP1;ratioP1;P2;durP2;ratioP2
21472;SDS011;10898;48.072;11.682;2024-02-15T00:01:50;1.50;;;1.20;;
21472;SDS011;10898;48.072;11.682;2024-02-15T00:03:52;1.10;;;1.10;;
21472;SDS011;10898;48.072;11.682;2024-02-15T00:05:54;1.20;;;1.10;;
21472;SDS011;10898;48.072;11.682;2024-02-15T00:07:55;1.20;;;1.10;;
21472;SDS011;10898;48.072;11.682;2024-02-15T00:09:57;1.50;;;1.40;;
21472;SDS011;10898;48.072;11.682;2024-02-15T00:14:02;0.80;;;0.80;;
21472;SDS011;10898;48.072;11.682;2024-02-15T00:16:03;1.53;;;1.43;;
21472;SDS011;10898;48.072;11.682;2024-02-15T00:18:05;1.33;;;1.27;;
21472;SDS011;10898;48.072;11.682;2024-02-15T00:20:08;1.30;;;1.20;;
21472;SDS011;10898;48.072;11.682;2024-02-15T00:22:10;1.58;;;1.48;;
21472;SDS011;10898;48.072;11.682;2024-02-15T00:24:12;1.70;;;1.40;;
21472;SDS011;10898;48.072;11.682;2024-02-15T00:26:15;1.10;;;1.00;;
21472;SDS011;10898;48.072;11.682;2024-02-15T00:28:17;1.63;;;1.53;;
21472;SDS011;10898;48.072;11.682;2024-02-15T00:30:19;1.23;;;1.23;;
21472;SDS011;10898;48.072;11.682;2024-02-15T00:32:21;1.13;;;1.13;;
21472;SDS011;10898;48.072;11.682;2024-02-15T00:34:23;1.50;;;1.40;;
21472;SDS011;10898;48.072;11.682;2024-02-15T00:36:27;1.25;;;1.15;;
21472;SDS011;10898;48.072;11.682;2024-02-15T00:38:31;1.30;;;1.23;;
21472;SDS011;10898;48.072;11.682;2024-02-15T00:40:33;1.40;;;1.30;;
21472;SDS011;10898;48.072;11.682;2024-02-15T00:42:35;1.45;;;1.35;;
21472;SDS011;10898;48.072;11.682;2024-02-15T00:44:37;1.38;;;1.27;;
21472;SDS011;10898;48.072;11.682;2024-02-15T00:46:40;2.65;;;1.42;;
21472;SDS011;10898;48.072;11.682;2024-02-15T00:48:42;1.35;;;1.33;;
21472;SDS011;10898;48.072;11.682;2024-02-15T00:50:44;1.25;;;1.15;;
21472;SDS011;10898;48.072;11.682;2024-02-15T00:52:47;1.42;;;1.30;;
21472;SDS011;10898;48.072;11.682;2024-02-15T00:54:48;1.30;;;1.23;;
21472;SDS011;10898;48.072;11.682;2024-02-15T00:56:51;1.10;;;1.10;;
21472;SDS011;10898;48.072;11.682;2024-02-15T00:58:53;1.10;;;1.10;;
21472;SDS011;10898;48.072;11.682;2024-02-15T01:00:54;1.30;;;1.20;;
21472;SDS011;10898;48.072;11.682;2024-02-15T01:02:56;1.15;;;1.15;;
21472;SDS011;10898;48.072;11.682;2024-02-15T01:07:01;1.35;;;1.30;;
21472;SDS011;10898;48.072;11.682;2024-02-15T01:09:03;1.20;;;1.20;;
21472;SDS011;10898;48.072;11.682;2024-02-15T01:11:05;1.20;;;1.10;;
21472;SDS011;10898;48.072;11.682;2024-02-15T01:13:07;1.20;;;1.10;;
21472;SDS011;10898;48.072;11.682;2024-02-15T01:15:10;1.27;;;1.20;;
21472;SDS011;10898;48.072;11.682;2024-02-15T01:17:12;1.23;;;1.00;;
21472;SDS011;10898;48.072;11.682;2024-02-15T01:19:14;1.20;;;1.10;;
21472;SDS011;10898;48.072;11.682;2024-02-15T01:21:16;1.20;;;1.10;;
21472;SDS011;10898;48.072;11.682;2024-02-15T01:23:17;1.60;;;1.50;;
21472;SDS011;10898;48.072;11.682;2024-02-15T01:25:19;1.63;;;1.50;;
21472;SDS011;10898;48.072;11.682;2024-02-15T01:29:24;1.48;;;1.23;;
21472;SDS011;10898;48.072;11.682;2024-02-15T01:33:28;0.90;;;0.90;;
21472;SDS011;10898;48.072;11.682;2024-02-15T01:35:30;1.30;;;1.20;;
21472;SDS011;10898;48.072;11.682;2024-02-15T01:37:32;1.30;;;1.30;;
21472;SDS011;10898;48.072;11.682;2024-02-15T01:39:34;1.48;;;1.38;;
21472;SDS011;10898;48.072;11.682;2024-02-15T01:41:35;1.02;;;1.02;;
21472;SDS011;10898;48.072;11.682;2024-02-15T01:43:37;1.10;;;1.10;;
21472;SDS011;10898;48.072;11.682;2024-02-15T01:45:39;1.10;;;1.10;;
21472;SDS011;10898;48.072;11.682;2024-02-15T01:47:42;1.30;;;1.15;;
21472;SDS011;10898;48.072;11.682;2024-02-15T01:49:45;1.30;;;1.30;;
21472;SDS011;10898;48.072;11.682;2024-02-15T01:51:50;1.25;;;1.23;;
21472;SDS011;10898;48.072;11.682;2024-02-15T01:53:54;1.30;;;1.20;;
21472;SDS011;10898;48.072;11.682;2024-02-15T01:55:56;1.30;;;1.20;;
21472;SDS011;10898;48.072;11.682;2024-02-15T01:58:00;1.77;;;1.33;;
21472;SDS011;10898;48.072;11.682;2024-02-15T02:00:03;1.83;;;1.73;;
21472;SDS011;10898;48.072;11.682;2024-02-15T02:02:08;1.20;;;1.10;;
21472;SDS011;10898;48.072;11.682;2024-02-15T02:04:20;1.10;;;1.10;;
21472;SDS011;10898;48.072;11.682;2024-02-15T02:06:22;1.10;;;1.10;;
21472;SDS011;10898;48.072;11.682;2024-02-15T02:08:25;1.05;;;1.00;;
21472;SDS011;10898;48.072;11.682;2024-02-15T02:10:27;1.10;;;1.10;;
21472;SDS011;10898;48.072;11.682;2024-02-15T02:12:33;1.00;;;1.00;;
21472;SDS011;10898;48.072;11.682;2024-02-15T02:14:35;1.30;;;1.20;;
21472;SDS011;10898;48.072;11.682;2024-02-15T02:16:37;1.10;;;1.10;;
21472;SDS011;10898;48.072;11.682;2024-02-15T02:18:40;1.10;;;1.00;;
21472;SDS011;10898;48.072;11.682;2024-02-15T02:20:43;1.05;;;1.05;;
21472;SDS011;10898;48.072;11.682;2024-02-15T02:22:45;1.02;;;1.02;;
21472;SDS011;10898;48.072;11.682;2024-02-15T02:24:55;1.20;;;1.20;;
21472;SDS011;10898;48.072;11.682;2024-02-15T02:26:59;3.78;;;1.48;;
21472;SDS011;10898;48.072;11.682;2024-02-15T02:29:01;1.10;;;1.00;;
21472;SDS011;10898;48.072;11.682;2024-02-15T02:31:06;1.67;;;1.30;;
21472;SDS011;10898;48.072;11.682;2024-02-15T02:33:11;1.30;;;1.20;;
21472;SDS011;10898;48.072;11.682;2024-02-15T02:35:20;1.00;;;1.00;;
21472;SDS011;10898;48.072;11.682;2024-02-15T02:37:25;1.33;;;1.23;;
21472;SDS011;10898;48.072;11.682;2024-02-15T02:39:27;1.15;;;1.05;;
21472;SDS011;10898;48.072;11.682;2024-02-15T02:41:32;1.23;;;1.10;;
21472;SDS011;10898;48.072;11.682;2024-02-15T02:43:34;1.33;;;1.23;;
21472;SDS011;10898;48.072;11.682;2024-02-15T02:45:36;1.20;;;1.20;;
21472;SDS011;10898;48.072;11.682;2024-02-15T02:47:38;1.00;;;1.00;;
21472;SDS011;10898;48.072;11.682;2024-02-15T02:49:40;1.40;;;1.30;;
21472;SDS011;10898;48.072;11.682;2024-02-15T02:51:42;0.83;;;0.83;;
21472;SDS011;10898;48.072;11.682;2024-02-15T02:53:44;1.30;;;1.30;;
21472;SDS011;10898;48.072;11.682;2024-02-15T02:55:46;1.30;;;1.20;;
21472;SDS011;10898;48.072;11.682;2024-02-15T02:57:48;1.73;;;1.30;;
21472;SDS011;10898;48.072;11.682;2024-02-15T02:59:49;1.17;;;1.17;;
21472;SDS011;10898;48.072;11.682;2024-02-15T03:01:52;1.10;;;1.10;;
21472;SDS011;10898;48.072;11.682;2024-02-15T03:03:58;1.30;;;1.20;;
21472;SDS011;10898;48.072;11.682;2024-02-15T03:05:59;0.95;;;0.95;;
21472;SDS011;10898;48.072;11.682;2024-02-15T03:08:03;1.25;;;1.15;;
21472;SDS011;10898;48.072;11.682;2024-02-15T03:10:05;1.38;;;1.27;;
21472;SDS011;10898;48.072;11.682;2024-02-15T03:12:09;1.38;;;1.27;;
21472;SDS011;10898;48.072;11.682;2024-02-15T03:14:11;1.10;;;1.10;;
21472;SDS011;10898;48.072;11.682;2024-02-15T03:18:15;1.00;;;1.00;;
21472;SDS011;10898;48.072;11.682;2024-02-15T03:20:17;1.05;;;1.05;;
21472;SDS011;10898;48.072;11.682;2024-02-15T03:22:24;1.10;;;1.10;;
21472;SDS011;10898;48.072;11.682;2024-02-15T03:24:27;1.33;;;1.33;;
21472;SDS011;10898;48.072;11.682;2024-02-15T03:26:29;1.10;;;1.10;;
21472;SDS011;10898;48.072;11.682;2024-02-15T03:28:38;0.95;;;0.95;;
21472;SDS011;10898;48.072;11.682;2024-02-15T03:30:40;1.10;;;1.10;;
21472;SDS011;10898;48.072;11.682;2024-02-15T03:32:44;1.00;;;1.00;;
21472;SDS011;10898;48.072;11.682;2024-02-15T03:34:46;1.50;;;1.40;;
21472;SDS011;10898;48.072;11.682;2024-02-15T03:36:47;1.10;;;1.05;;
21472;SDS011;10898;48.072;11.682;2024-02-15T03:38:54;0.90;;;0.90;;
21472;SDS011;10898;48.072;11.682;2024-02-15T03:40:57;1.05;;;1.05;;
21472;SDS011;10898;48.072;11.682;2024-02-15T03:42:59;1.10;;;1.10;;
21472;SDS011;10898;48.072;11.682;2024-02-15T03:45:01;1.27;;;1.20;;
21472;SDS011;10898;48.072;11.682;2024-02-15T03:47:03;1.47;;;1.17;;
21472;SDS011;10898;48.072;11.682;2024-02-15T03:49:06;0.82;;;0.82;;
21472;SDS011;10898;48.072;11.682;2024-02-15T03:51:09;1.17;;;1.17;;
21472;SDS011;10898;48.072;11.682;2024-02-15T03:53:11;1.00;;;1.00;;
21472;SDS011;10898;48.072;11.682;2024-02-15T03:55:13;1.23;;;1.20;;
21472;SDS011;10898;48.072;11.682;2024-02-15T03:57:14;1.20;;;1.20;;
21472;SDS011;10898;48.072;11.682;2024-02-15T03:59:18;1.63;;;1.00;;
21472;SDS011;10898;48.072;11.682;2024-02-15T04:01:28;1.15;;;1.15;;
21472;SDS011;10898;48.072;11.682;2024-02-15T04:03:33;1.35;;;0.95;;
21472;SDS011;10898;48.072;11.682;2024-02-15T04:05:35;1.40;;;1.30;;
21472;SDS011;10898;48.072;11.682;2024-02-15T04:07:37;1.08;;;1.08;;
21472;SDS011;10898;48.072;11.682;2024-02-15T04:09:39;1.27;;;1.23;;
21472;SDS011;10898;48.072;11.682;2024-02-15T04:11:41;1.00;;;1.00;;
21472;SDS011;10898;48.072;11.682;2024-02-15T04:13:43;1.20;;;1.10;;
21472;SDS011;10898;48.072;11.682;2024-02-15T04:15:45;1.30;;;1.20;;
21472;SDS011;10898;48.072;11.682;2024-02-15T04:17:48;1.60;;;1.50;;
21472;SDS011;10898;48.072;11.682;2024-02-15T04:19:54;1.00;;;1.00;;
21472;SDS011;10898;48.072;11.682;2024-02-15T04:21:56;1.58;;;1.20;;
21472;SDS011;10898;48.072;11.682;2024-02-15T04:23:58;1.00;;;1.00;;
21472;SDS011;10898;48.072;11.682;2024-02-15T04:26:00;1.30;;;1.17;;
21472;SDS011;10898;48.072;11.682;2024-02-15T04:28:02;1.40;;;1.30;;
21472;SDS011;10898;48.072;11.682;2024-02-15T04:32:10;1.30;;;1.23;;
21472;SDS011;10898;48.072;11.682;2024-02-15T04:36:15;1.25;;;1.25;;
21472;SDS011;10898;48.072;11.682;2024-02-15T04:38:24;2.83;;;1.23;;
21472;SDS011;10898;48.072;11.682;2024-02-15T04:40:26;1.52;;;1.42;;
21472;SDS011;10898;48.072;11.682;2024-02-15T04:42:28;1.52;;;1.42;;
21472;SDS011;10898;48.072;11.682;2024-02-15T04:44:31;1.00;;;1.00;;
21472;SDS011;10898;48.072;11.682;2024-02-15T04:46:36;2.65;;;1.17;;
21472;SDS011;10898;48.072;11.682;2024-02-15T04:48:38;1.63;;;1.52;;
21472;SDS011;10898;48.072;11.682;2024-02-15T04:50:40;1.55;;;1.45;;
21472;SDS011;10898;48.072;11.682;2024-02-15T04:52:44;1.33;;;1.23;;
21472;SDS011;10898;48.072;11.682;2024-02-15T04:54:47;1.20;;;1.10;;
21472;SDS011;10898;48.072;11.682;2024-02-15T04:56:49;1.58;;;1.27;;
21472;SDS011;10898;48.072;11.682;2024-02-15T04:58:55;1.10;;;1.10;;
21472;SDS011;10898;48.072;11.682;2024-02-15T05:00:57;1.50;;;1.40;;
21472;SDS011;10898;48.072;11.682;2024-02-15T05:03:00;3.20;;;2.63;;
21472;SDS011;10898;48.072;11.682;2024-02-15T05:05:02;1.00;;;1.00;;
21472;SDS011;10898;48.072;11.682;2024-02-15T05:07:05;1.60;;;1.50;;
21472;SDS011;10898;48.072;11.682;2024-02-15T05:09:07;1.50;;;1.40;;
21472;SDS011;10898;48.072;11.682;2024-02-15T05:11:11;1.60;;;1.50;;
21472;SDS011;10898;48.072;11.682;2024-02-15T05:13:18;1.20;;;1.10;;
21472;SDS011;10898;48.072;11.682;2024-02-15T05:15:20;1.50;;;1.40;;
21472;SDS011;10898;48.072;11.682;2024-02-15T05:17:24;1.38;;;1.33;;
21472;SDS011;10898;48.072;11.682;2024-02-15T05:19:27;1.53;;;1.43;;
21472;SDS011;10898;48.072;11.682;2024-02-15T05:21:29;1.20;;;1.20;;
21472;SDS011;10898;48.072;11.682;2024-02-15T05:23:31;1.50;;;1.40;;
21472;SDS011;10898;48.072;11.682;2024-02-15T05:25:33;1.23;;;1.17;;
21472;SDS011;10898;48.072;11.682;2024-02-15T05:27:36;1.42;;;1.38;;
21472;SDS011;10898;48.072;11.682;2024-02-15T05:29:38;1.38;;;1.27;;
21472;SDS011;10898;48.072;11.682;2024-02-15T05:31:40;1.15;;;1.15;;
21472;SDS011;10898;48.072;11.682;2024-02-15T05:33:51;1.40;;;1.30;;
21472;SDS011;10898;48.072;11.682;2024-02-15T05:35:55;1.30;;;1.30;;
21472;SDS011;10898;48.072;11.682;2024-02-15T05:37:57;2.10;;;1.90;;
21472;SDS011;10898;48.072;11.682;2024-02-15T05:39:59;1.60;;;1.50;;
21472;SDS011;10898;48.072;11.682;2024-02-15T05:42:00;1.80;;;1.70;;
21472;SDS011;10898;48.072;11.682;2024-02-15T05:44:03;1.60;;;1.50;;
21472;SDS011;10898;48.072;11.682;2024-02-15T05:46:10;1.35;;;1.25;;
21472;SDS011;10898;48.072;11.682;2024-02-15T05:48:13;1.40;;;1.40;;
21472;SDS011;10898;48.072;11.682;2024-02-15T05:50:15;1.70;;;1.60;;
21472;SDS011;10898;48.072;11.682;2024-02-15T05:52:18;1.30;;;1.20;;
21472;SDS011;10898;48.072;11.682;2024-02-15T05:54:21;1.60;;;1.50;;
21472;SDS011;10898;48.072;11.682;2024-02-15T05:56:26;1.40;;;1.30;;
21472;SDS011;10898;48.072;11.682;2024-02-15T05:58:30;1.42;;;1.33;;
21472;SDS011;10898;48.072;11.682;2024-02-15T06:00:33;1.52;;;1.42;;
21472;SDS011;10898;48.072;11.682;2024-02-15T06:04:37;1.92;;;1.23;;
21472;SDS011;10898;48.072;11.682;2024-02-15T06:06:42;1.30;;;1.30;;
21472;SDS011;10898;48.072;11.682;2024-02-15T06:08:46;1.65;;;1.55;;
21472;SDS011;10898;48.072;11.682;2024-02-15T06:10:48;1.52;;;1.42;;
21472;SDS011;10898;48.072;11.682;2024-02-15T06:12:50;1.33;;;1.30;;
21472;SDS011;10898;48.072;11.682;2024-02-15T06:14:51;1.43;;;1.33;;
21472;SDS011;10898;48.072;11.682;2024-02-15T06:16:53;1.60;;;1.50;;
21472;SDS011;10898;48.072;11.682;2024-02-15T06:18:56;1.52;;;1.42;;
21472;SDS011;10898;48.072;11.682;2024-02-15T06:20:59;1.27;;;1.20;;
21472;SDS011;10898;48.072;11.682;2024-02-15T06:23:02;1.60;;;1.50;;
21472;SDS011;10898;48.072;11.682;2024-02-15T06:25:09;1.42;;;1.33;;
21472;SDS011;10898;48.072;11.682;2024-02-15T06:27:11;1.63;;;1.52;;
21472;SDS011;10898;48.072;11.682;2024-02-15T06:29:14;1.60;;;1.50;;
21472;SDS011;10898;48.072;11.682;2024-02-15T06:31:34;1.30;;;1.20;;
21472;SDS011;10898;48.072;11.682;2024-02-15T06:33:55;4.50;;;1.73;;
21472;SDS011;10898;48.072;11.682;2024-02-15T06:36:15;2.88;;;2.22;;
21472;SDS011;10898;48.072;11.682;2024-02-15T06:38:36;2.47;;;1.95;;
21472;SDS011;10898;48.072;11.682;2024-02-15T06:40:57;2.42;;;2.20;;
21472;SDS011;10898;48.072;11.682;2024-02-15T06:42:59;2.30;;;2.13;;
21472;SDS011;10898;48.072;11.682;2024-02-15T06:45:01;2.70;;;1.90;;
21472;SDS011;10898;48.072;11.682;2024-02-15T06:47:03;2.35;;;2.15;;
21472;SDS011;10898;48.072;11.682;2024-02-15T06:49:05;2.67;;;2.40;;
21472;SDS011;10898;48.072;11.682;2024-02-15T06:51:07;2.83;;;2.28;;
21472;SDS011;10898;48.072;11.682;2024-02-15T06:53:14;2.03;;;1.92;;
21472;SDS011;10898;48.072;11.682;2024-02-15T06:55:16;2.10;;;2.00;;
21472;SDS011;10898;48.072;11.682;2024-02-15T06:57:18;1.83;;;1.73;;
21472;SDS011;10898;48.072;11.682;2024-02-15T06:59:20;1.98;;;1.85;;
21472;SDS011;10898;48.072;11.682;2024-02-15T07:01:24;1.70;;;1.60;;
21472;SDS011;10898;48.072;11.682;2024-02-15T07:03:28;1.88;;;1.63;;
21472;SDS011;10898;48.072;11.682;2024-02-15T07:05:31;1.77;;;1.67;;
21472;SDS011;10898;48.072;11.682;2024-02-15T07:07:32;1.87;;;1.77;;
21472;SDS011;10898;48.072;11.682;2024-02-15T07:09:35;1.60;;;1.50;;
21472;SDS011;10898;48.072;11.682;2024-02-15T07:11:37;1.77;;;1.67;;
21472;SDS011;10898;48.072;11.682;2024-02-15T07:13:39;3.42;;;1.80;;
21472;SDS011;10898;48.072;11.682;2024-02-15T07:15:41;2.55;;;1.85;;
21472;SDS011;10898;48.072;11.682;2024-02-15T07:17:43;2.60;;;1.70;;
21472;SDS011;10898;48.072;11.682;2024-02-15T07:19:45;2.05;;;1.73;;
21472;SDS011;10898;48.072;11.682;2024-02-15T07:21:50;2.10;;;1.85;;
21472;SDS011;10898;48.072;11.682;2024-02-15T07:23:55;2.47;;;2.28;;
21472;SDS011;10898;48.072;11.682;2024-02-15T07:25:57;1.45;;;1.35;;
21472;SDS011;10898;48.072;11.682;2024-02-15T07:27:59;1.70;;;1.60;;
21472;SDS011;10898;48.072;11.682;2024-02-15T07:30:01;1.40;;;1.30;;
21472;SDS011;10898;48.072;11.682;2024-02-15T07:32:05;2.45;;;1.73;;
21472;SDS011;10898;48.072;11.682;2024-02-15T07:34:07;2.20;;;2.00;;
21472;SDS011;10898;48.072;11.682;2024-02-15T07:36:10;2.35;;;2.15;;
21472;SDS011;10898;48.072;11.682;2024-02-15T07:38:12;1.80;;;1.70;;
21472;SDS011;10898;48.072;11.682;2024-02-15T07:40:14;2.60;;;1.98;;
21472;SDS011;10898;48.072;11.682;2024-02-15T07:42:15;2.38;;;2.17;;
21472;SDS011;10898;48.072;11.682;2024-02-15T07:44:17;2.67;;;2.47;;
21472;SDS011;10898;48.072;11.682;2024-02-15T07:46:19;2.10;;;2.00;;
21472;SDS011;10898;48.072;11.682;2024-02-15T07:48:23;1.98;;;1.88;;
21472;SDS011;10898;48.072;11.682;2024-02-15T07:50:25;2.20;;;1.98;;
21472;SDS011;10898;48.072;11.682;2024-02-15T07:52:26;2.47;;;1.57;;
21472;SDS011;10898;48.072;11.682;2024-02-15T07:54:30;1.85;;;1.73;;
21472;SDS011;10898;48.072;11.682;2024-02-15T07:56:34;1.95;;;1.60;;
21472;SDS011;10898;48.072;11.682;2024-02-15T07:58:39;3.00;;;1.88;;
21472;SDS011;10898;48.072;11.682;2024-02-15T08:00:53;1.63;;;1.52;;
21472;SDS011;10898;48.072;11.682;2024-02-15T08:02:55;1.38;;;1.30;;
21472;SDS011;10898;48.072;11.682;2024-02-15T08:04:58;1.70;;;1.60;;
21472;SDS011;10898;48.072;11.682;2024-02-15T08:07:00;2.03;;;1.92;;
21472;SDS011;10898;48.072;11.682;2024-02-15T08:09:02;2.22;;;1.88;;
21472;SDS011;10898;48.072;11.682;2024-02-15T08:11:08;2.00;;;1.83;;
21472;SDS011;10898;48.072;11.682;2024-02-15T08:13:16;1.98;;;1.80;;
21472;SDS011;10898;48.072;11.682;2024-02-15T08:15:19;3.45;;;2.05;;
21472;SDS011;10898;48.072;11.682;2024-02-15T08:17:20;1.83;;;1.73;;
21472;SDS011;10898;48.072;11.682;2024-02-15T08:19:22;1.57;;;1.47;;
21472;SDS011;10898;48.072;11.682;2024-02-15T08:21:25;1.60;;;1.38;;
21472;SDS011;10898;48.072;11.682;2024-02-15T08:23:28;1.70;;;1.60;;
21472;SDS011;10898;48.072;11.682;2024-02-15T08:25:30;2.17;;;1.53;;
21472;SDS011;10898;48.072;11.682;2024-02-15T08:27:32;2.42;;;1.75;;
21472;SDS011;10898;48.072;11.682;2024-02-15T08:29:40;2.22;;;1.42;;
21472;SDS011;10898;48.072;11.682;2024-02-15T08:31:42;5.22;;;1.95;;
21472;SDS011;10898;48.072;11.682;2024-02-15T08:33:44;3.05;;;1.35;;
21472;SDS011;10898;48.072;11.682;2024-02-15T08:35:47;1.67;;;1.50;;
21472;SDS011;10898;48.072;11.682;2024-02-15T08:37:52;2.28;;;1.83;;
21472;SDS011;10898;48.072;11.682;2024-02-15T08:39:55;5.38;;;1.90;;
21472;SDS011;10898;48.072;11.682;2024-02-15T08:41:58;1.48;;;1.38;;
21472;SDS011;10898;48.072;11.682;2024-02-15T08:44:00;2.45;;;1.85;;
21472;SDS011;10898;48.072;11.682;2024-02-15T08:46:02;2.92;;;1.48;;
21472;SDS011;10898;48.072;11.682;2024-02-15T08:48:06;1.98;;;1.40;;
21472;SDS011;10898;48.072;11.682;2024-02-15T08:50:09;2.38;;;1.60;;
21472;SDS011;10898;48.072;11.682;2024-02-15T08:52:12;1.40;;;1.30;;
21472;SDS011;10898;48.072;11.682;2024-02-15T08:54:14;1.60;;;1.50;;
21472;SDS011;10898;48.072;11.682;2024-02-15T08:56:16;1.37;;;1.27;;
21472;SDS011;10898;48.072;11.682;2024-02-15T08:58:21;1.35;;;1.25;;
21472;SDS011;10898;48.072;11.682;2024-02-15T09:00:22;1.27;;;1.17;;
21472;SDS011;10898;48.072;11.682;2024-02-15T09:02:25;1.70;;;1.25;;
21472;SDS011;10898;48.072;11.682;2024-02-15T09:04:27;1.42;;;1.30;;
21472;SDS011;10898;48.072;11.682;2024-02-15T09:06:29;2.00;;;1.47;;
21472;SDS011;10898;48.072;11.682;2024-02-15T09:08:32;1.40;;;1.30;;
21472;SDS011;10898;48.072;11.682;2024-02-15T09:10:34;1.50;;;1.40;;
21472;SDS011;10898;48.072;11.682;2024-02-15T09:12:38;1.23;;;1.10;;
21472;SDS011;10898;48.072;11.682;2024-02-15T09:14:41;1.98;;;1.30;;
21472;SDS011;10898;48.072;11.682;2024-02-15T09:16:43;2.03;;;1.17;;
21472;SDS011;10898;48.072;11.682;2024-02-15T09:18:44;1.37;;;1.27;;
21472;SDS011;10898;48.072;11.682;2024-02-15T09:22:50;1.00;;;1.00;;
21472;SDS011;10898;48.072;11.682;2024-02-15T09:24:53;1.10;;;1.10;;
21472;SDS011;10898;48.072;11.682;2024-02-15T09:26:55;1.47;;;1.13;;
21472;SDS011;10898;48.072;11.682;2024-02-15T09:28:57;1.42;;;1.23;;
21472;SDS011;10898;48.072;11.682;2024-02-15T09:30:58;1.25;;;1.15;;
21472;SDS011;10898;48.072;11.682;2024-02-15T09:33:01;1.65;;;1.42;;
21472;SDS011;10898;48.072;11.682;2024-02-15T09:35:07;1.10;;;1.00;;
21472;SDS011;10898;48.072;11.682;2024-02-15T09:37:10;1.10;;;0.93;;
21472;SDS011;10898;48.072;11.682;2024-02-15T09:39:12;1.23;;;1.13;;
21472;SDS011;10898;48.072;11.682;2024-02-15T09:41:15;0.98;;;0.90;;
21472;SDS011;10898;48.072;11.682;2024-02-15T09:43:17;0.73;;;0.73;;
21472;SDS011;10898;48.072;11.682;2024-02-15T09:45:19;1.65;;;0.93;;
21472;SDS011;10898;48.072;11.682;2024-02-15T09:47:22;0.90;;;0.90;;
21472;SDS011;10898;48.072;11.682;2024-02-15T09:49:26;0.95;;;0.90;;
21472;SDS011;10898;48.072;11.682;2024-02-15T09:51:29;1.63;;;1.13;;
21472;SDS011;10898;48.072;11.682;2024-02-15T09:53:34;1.02;;;1.00;;
21472;SDS011;10898;48.072;11.682;2024-02-15T09:55:36;1.48;;;0.90;;
21472;SDS011;10898;48.072;11.682;2024-02-15T09:57:43;1.60;;;0.80;;
21472;SDS011;10898;48.072;11.682;2024-02-15T09:59:47;1.15;;;1.08;;
21472;SDS011;10898;48.072;11.682;2024-02-15T10:01:49;0.90;;;0.90;;
21472;SDS011;10898;48.072;11.682;2024-02-15T10:03:53;1.00;;;0.90;;
21472;SDS011;10898;48.072;11.682;2024-02-15T10:05:55;1.03;;;1.00;;
21472;SDS011;10898;48.072;11.682;2024-02-15T10:07:59;1.10;;;0.90;;
21472;SDS011;10898;48.072;11.682;2024-02-15T10:12:22;0.93;;;0.80;;
21472;SDS011;10898;48.072;11.682;2024-02-15T10:14:28;2.70;;;1.10;;
21472;SDS011;10898;48.072;11.682;2024-02-15T10:16:30;0.98;;;0.88;;
21472;SDS011;10898;48.072;11.682;2024-02-15T10:18:36;1.35;;;0.85;;
21472;SDS011;10898;48.072;11.682;2024-02-15T10:20:41;0.80;;;0.80;;
21472;SDS011;10898;48.072;11.682;2024-02-15T10:22:46;0.85;;;0.70;;
21472;SDS011;10898;48.072;11.682;2024-02-15T10:24:48;1.02;;;0.93;;
21472;SDS011;10898;48.072;11.682;2024-02-15T10:26:50;1.50;;;0.90;;
21472;SDS011;10898;48.072;11.682;2024-02-15T10:31:13;0.77;;;0.77;;
21472;SDS011;10898;48.072;11.682;2024-02-15T10:33:18;0.80;;;0.80;;
21472;SDS011;10898;48.072;11.682;2024-02-15T10:35:24;0.75;;;0.75;;
21472;SDS011;10898;48.072;11.682;2024-02-15T10:37:26;1.60;;;1.23;;
21472;SDS011;10898;48.072;11.682;2024-02-15T10:39:28;0.97;;;0.97;;
21472;SDS011;10898;48.072;11.682;2024-02-15T10:41:30;0.70;;;0.70;;
21472;SDS011;10898;48.072;11.682;2024-02-15T10:43:34;0.90;;;0.80;;
21472;SDS011;10898;48.072;11.682;2024-02-15T10:45:39;0.80;;;0.80;;
21472;SDS011;10898;48.072;11.682;2024-02-15T10:47:42;0.80;;;0.80;;
21472;SDS011;10898;48.072;11.682;2024-02-15T10:49:46;1.00;;;1.00;;
21472;SDS011;10898;48.072;11.682;2024-02-15T10:51:55;1.10;;;0.93;;
21472;SDS011;10898;48.072;11.682;2024-02-15T10:53:58;2.08;;;1.88;;
21472;SDS011;10898;48.072;11.682;2024-02-15T10:58:25;1.02;;;0.85;;
21472;SDS011;10898;48.072;11.682;2024-02-15T11:00:31;1.48;;;0.80;;
21472;SDS011;10898;48.072;11.682;2024-02-15T11:02:38;0.95;;;0.85;;
21472;SDS011;10898;48.072;11.682;2024-02-15T11:04:46;1.88;;;0.90;;
21472;SDS011;10898;48.072;11.682;2024-02-15T11:06:52;1.70;;;1.02;;
21472;SDS011;10898;48.072;11.682;2024-02-15T11:08:57;0.63;;;0.63;;
21472;SDS011;10898;48.072;11.682;2024-02-15T11:11:00;1.00;;;1.00;;
21472;SDS011;10898;48.072;11.682;2024-02-15T11:13:06;0.80;;;0.80;;
21472;SDS011;10898;48.072;11.682;2024-02-15T11:15:08;1.00;;;1.00;;
21472;SDS011;10898;48.072;11.682;2024-02-15T11:21:52;0.85;;;0.80;;
21472;SDS011;10898;48.072;11.682;2024-02-15T11:23:55;0.85;;;0.85;;
21472;SDS011;10898;48.072;11.682;2024-02-15T11:25:57;0.98;;;0.75;;
21472;SDS011;10898;48.072;11.682;2024-02-15T11:28:45;0.85;;;0.85;;
21472;SDS011;10898;48.072;11.682;2024-02-15T11:30:33;0.77;;;0.70;;
21472;SDS011;10898;48.072;11.682;2024-02-15T11:34:42;0.82;;;0.80;;
21472;SDS011;10898;48.072;11.682;2024-02-15T11:36:47;0.70;;;0.70;;
21472;SDS011;10898;48.072;11.682;2024-02-15T11:38:49;0.90;;;0.80;;
21472;SDS011;10898;48.072;11.682;2024-02-15T11:43:00;2.08;;;0.73;;
